createdAt,value
2023-03-05T00:02:10.196Z,4.78
2023-03-05T00:04:37.197Z,4.75
2023-03-05T00:07:05.380Z,4.82
2023-03-05T00:09:35.829Z,4.77
2023-03-05T00:12:02.902Z,4.74
2023-03-05T00:14:30.301Z,4.77
2023-03-05T00:16:58.001Z,4.77
2023-03-05T00:19:25.171Z,4.77
2023-03-05T00:21:52.110Z,4.80
2023-03-05T00:24:19.656Z,4.84
2023-03-05T00:26:47.188Z,4.82
2023-03-05T00:29:18.540Z,4.82
2023-03-05T00:31:46.375Z,4.82
2023-03-05T00:34:15.471Z,4.74
2023-03-05T00:36:44.509Z,4.73
2023-03-05T00:39:12.386Z,4.71
2023-03-05T00:41:39.795Z,4.75
2023-03-05T00:44:07.698Z,4.78
2023-03-05T00:46:35.053Z,4.74
2023-03-05T00:49:01.926Z,4.80
2023-03-05T00:51:29.002Z,4.82
2023-03-05T00:53:56.170Z,4.81
2023-03-05T00:56:23.788Z,4.77
2023-03-05T00:58:51.000Z,4.71
2023-03-05T01:01:18.386Z,4.69
2023-03-05T01:03:45.653Z,4.71
2023-03-05T01:06:15.028Z,4.64
2023-03-05T01:08:43.915Z,4.65
2023-03-05T01:11:11.842Z,4.65
2023-03-05T01:13:38.538Z,4.70
2023-03-05T01:16:05.935Z,4.66
2023-03-05T01:18:33.867Z,4.66
2023-03-05T01:21:01.354Z,4.68
2023-03-05T01:23:28.858Z,4.70
2023-03-05T01:25:58.202Z,4.63
2023-03-05T01:28:27.778Z,4.60
2023-03-05T01:30:55.313Z,4.63
2023-03-05T01:33:23.243Z,4.65
2023-03-05T01:35:50.452Z,4.63
2023-03-05T01:38:18.148Z,4.64
2023-03-05T01:40:45.576Z,4.63
2023-03-05T01:43:12.246Z,4.67
2023-03-05T01:46:17.873Z,4.65
2023-03-05T01:48:49.927Z,4.61
2023-03-05T01:51:20.403Z,4.65
2023-03-05T01:53:47.750Z,4.62
2023-03-05T01:56:16.753Z,4.63
2023-03-05T01:58:45.148Z,4.61
2023-03-05T02:01:12.774Z,4.69
2023-03-05T02:03:41.716Z,4.61
2023-03-05T02:06:09.835Z,4.65
2023-03-05T02:08:36.832Z,4.55
2023-03-05T02:11:05.197Z,4.56
2023-03-05T02:13:38.726Z,4.53
2023-03-05T02:16:07.818Z,4.47
2023-03-05T02:18:36.420Z,4.62
2023-03-05T02:21:07.774Z,4.56
2023-03-05T02:23:38.037Z,4.55
2023-03-05T02:26:07.831Z,4.57
2023-03-05T02:28:40.275Z,4.57
2023-03-05T02:31:14.202Z,4.58
2023-03-05T02:33:41.385Z,4.57
2023-03-05T02:36:08.828Z,4.64
2023-03-05T02:38:36.644Z,4.62
2023-03-05T02:41:04.354Z,4.59
2023-03-05T02:43:32.274Z,4.58
2023-03-05T02:46:00.144Z,4.58
2023-03-05T02:48:27.400Z,4.58
2023-03-05T02:50:55.911Z,4.58
2023-03-05T02:53:23.781Z,4.59
2023-03-05T02:55:50.758Z,4.51
2023-03-05T02:58:18.502Z,4.58
2023-03-05T03:00:46.839Z,4.48
2023-03-05T03:03:14.132Z,4.53
2023-03-05T03:05:41.412Z,4.61
2023-03-05T03:08:08.792Z,4.58
2023-03-05T03:10:36.058Z,4.51
2023-03-05T03:13:04.860Z,4.52
2023-03-05T03:15:32.463Z,4.54
2023-03-05T03:17:59.522Z,4.50
2023-03-05T03:20:26.605Z,4.53
2023-03-05T03:22:53.889Z,4.57
2023-03-05T03:25:23.048Z,4.45
2023-03-05T03:27:49.987Z,4.47
2023-03-05T03:30:17.349Z,4.38
2023-03-05T03:32:44.689Z,4.40
2023-03-05T03:35:12.989Z,4.40
2023-03-05T03:37:40.789Z,4.44
2023-03-05T03:40:08.208Z,4.44
2023-03-05T03:42:35.624Z,4.40
2023-03-05T03:45:04.777Z,4.32
2023-03-05T03:47:31.864Z,4.24
2023-03-05T03:50:01.689Z,4.23
2023-03-05T03:52:28.677Z,4.18
2023-03-05T03:55:01.509Z,4.19
2023-03-05T03:57:30.161Z,4.21
2023-03-05T03:59:57.099Z,4.21
2023-03-05T04:02:24.322Z,4.20
2023-03-05T04:04:52.193Z,4.17
2023-03-05T04:07:19.825Z,4.20
2023-03-05T04:09:46.809Z,4.28
2023-03-05T04:12:18.010Z,4.20
2023-03-05T04:14:46.515Z,4.20
2023-03-05T04:17:15.200Z,4.20
2023-03-05T04:19:43.279Z,4.20
2023-03-05T04:22:12.499Z,4.26
2023-03-05T04:24:40.144Z,4.28
2023-03-05T04:27:07.332Z,4.32
2023-03-05T04:29:34.573Z,4.39
2023-03-05T04:32:01.627Z,4.34
2023-03-05T04:34:28.794Z,4.25
2023-03-05T04:36:55.634Z,4.26
2023-03-05T04:39:22.788Z,4.28
2023-03-05T04:41:50.097Z,4.27
2023-03-05T04:44:17.995Z,4.22
2023-03-05T04:46:44.846Z,4.20
2023-03-05T04:49:11.843Z,4.20
2023-03-05T04:51:39.011Z,4.22
2023-03-05T04:54:06.212Z,4.20
2023-03-05T04:56:33.680Z,4.15
2023-03-05T04:59:01.148Z,4.16
2023-03-05T05:01:28.280Z,4.17
2023-03-05T05:03:54.941Z,4.14
2023-03-05T05:06:21.818Z,4.17
2023-03-05T05:08:49.198Z,4.16
2023-03-05T05:11:16.357Z,4.13
2023-03-05T05:13:44.574Z,4.13
2023-03-05T05:16:11.478Z,4.18
2023-03-05T05:18:39.771Z,4.11
2023-03-05T05:21:09.197Z,4.04
2023-03-05T05:23:36.781Z,4.03
2023-03-05T05:26:06.366Z,4.00
2023-03-05T05:28:34.953Z,3.98
2023-03-05T05:31:07.850Z,4.00
2023-03-05T05:33:35.450Z,3.99
2023-03-05T05:36:09.104Z,4.05
2023-03-05T05:38:36.235Z,4.01
2023-03-05T05:41:09.618Z,3.97
2023-03-05T05:43:37.230Z,4.03
2023-03-05T05:46:08.173Z,4.09
2023-03-05T05:48:36.773Z,4.10
2023-03-05T05:51:10.014Z,4.13
2023-03-05T05:53:37.775Z,4.16
2023-03-05T05:56:05.989Z,4.11
2023-03-05T05:58:34.038Z,4.11
2023-03-05T06:01:01.326Z,4.10
2023-03-05T06:03:28.482Z,4.07
2023-03-05T06:05:55.893Z,4.11
2023-03-05T06:08:23.398Z,4.12
2023-03-05T06:10:55.069Z,4.07
2023-03-05T06:13:21.815Z,4.05
2023-03-05T06:16:00.009Z,4.03
2023-03-05T06:18:28.022Z,4.00
2023-03-05T06:21:01.086Z,4.02
2023-03-05T06:23:28.532Z,3.98
2023-03-05T06:25:59.908Z,3.98
2023-03-05T06:28:27.094Z,4.05
2023-03-05T06:31:08.635Z,3.99
2023-03-05T06:33:36.454Z,4.00
2023-03-05T06:36:12.489Z,4.05
2023-03-05T06:38:40.368Z,4.12
2023-03-05T06:41:11.489Z,4.06
2023-03-05T06:43:41.923Z,4.05
2023-03-05T06:46:15.345Z,4.04
2023-03-05T06:48:43.390Z,4.16
2023-03-05T06:51:15.255Z,4.19
2023-03-05T06:53:42.806Z,4.23
2023-03-05T06:56:10.338Z,4.28
2023-03-05T06:58:37.314Z,4.28
2023-03-05T07:01:09.275Z,4.27
2023-03-05T07:03:37.015Z,4.25
2023-03-05T07:06:09.784Z,4.21
2023-03-05T07:08:37.354Z,4.22
2023-03-05T07:11:09.380Z,4.21
2023-03-05T07:13:36.284Z,4.29
2023-03-05T07:16:08.800Z,4.33
2023-03-05T07:18:36.792Z,4.31
2023-03-05T07:21:08.149Z,4.40
2023-03-05T07:23:35.923Z,4.41
2023-03-05T07:26:06.372Z,4.45
2023-03-05T07:28:34.865Z,4.54
2023-03-05T07:31:12.097Z,4.50
2023-03-05T07:33:40.801Z,4.48
2023-03-05T07:36:09.097Z,4.41
2023-03-05T07:38:36.758Z,4.43
2023-03-05T07:41:05.895Z,4.47
2023-03-05T07:43:33.008Z,4.45
2023-03-05T07:46:04.374Z,4.42
2023-03-05T07:48:31.359Z,4.44
2023-03-05T07:51:04.017Z,4.49
2023-03-05T07:53:31.421Z,4.49
2023-03-05T07:55:58.845Z,4.55
2023-03-05T07:58:25.595Z,4.55
2023-03-05T08:00:52.962Z,4.49
2023-03-05T08:03:21.255Z,4.42
2023-03-05T08:05:48.033Z,4.52
2023-03-05T08:08:16.341Z,4.59
2023-03-05T08:10:43.428Z,4.71
2023-03-05T08:13:10.471Z,4.76
2023-03-05T08:15:38.226Z,4.77
2023-03-05T08:18:05.380Z,4.82
2023-03-05T08:20:35.522Z,4.90
2023-03-05T08:23:04.274Z,4.92
2023-03-05T08:25:31.982Z,5.04
2023-03-05T08:28:00.338Z,5.01
2023-03-05T08:30:27.985Z,5.07
2023-03-05T08:32:55.719Z,5.01
2023-03-05T08:35:23.739Z,5.08
2023-03-05T08:37:50.660Z,5.07
2023-03-05T08:40:18.110Z,4.91
2023-03-05T08:42:46.103Z,4.79
2023-03-05T08:45:13.552Z,4.70
2023-03-05T08:47:41.284Z,4.70
2023-03-05T08:50:09.282Z,4.70
2023-03-05T08:52:36.477Z,4.60
2023-03-05T08:55:04.138Z,4.68
2023-03-05T08:57:31.373Z,4.70
2023-03-05T08:59:58.509Z,4.72
2023-03-05T09:02:25.390Z,4.82
2023-03-05T09:04:52.197Z,4.76
2023-03-05T09:07:19.618Z,4.90
2023-03-05T09:09:46.676Z,4.95
2023-03-05T09:12:15.971Z,5.05
2023-03-05T09:14:43.628Z,5.02
2023-03-05T09:17:11.519Z,5.08
2023-03-05T09:19:38.942Z,5.08
2023-03-05T09:22:06.132Z,5.25
2023-03-05T09:24:33.824Z,5.28
2023-03-05T09:27:00.602Z,5.30
2023-03-05T09:29:28.274Z,5.32
2023-03-05T09:31:55.066Z,5.39
2023-03-05T09:34:22.780Z,5.39
2023-03-05T09:36:50.511Z,5.31
2023-03-05T09:39:17.477Z,5.32
2023-03-05T09:42:28.457Z,5.27
2023-03-05T09:45:16.879Z,5.29
2023-03-05T09:47:51.008Z,5.33
2023-03-05T09:50:40.553Z,5.53
2023-03-05T09:53:41.465Z,5.74
2023-03-05T09:56:16.532Z,5.79
2023-03-05T09:58:48.656Z,5.93
2023-03-05T10:01:20.543Z,5.88
2023-03-05T10:04:13.975Z,6.11
2023-03-05T10:06:59.045Z,6.24
2023-03-05T10:09:41.760Z,6.30
2023-03-05T10:12:42.689Z,6.25
2023-03-05T10:15:16.929Z,6.35
2023-03-05T10:18:04.700Z,6.09
2023-03-05T10:20:42.936Z,5.97
2023-03-05T10:23:16.192Z,6.02
2023-03-05T10:25:49.828Z,6.01
2023-03-05T10:28:22.369Z,6.07
2023-03-05T10:31:11.185Z,6.17
2023-03-05T10:33:53.788Z,6.04
2023-03-05T10:36:59.454Z,6.19
2023-03-05T10:39:38.303Z,6.05
2023-03-05T10:42:34.023Z,6.21
2023-03-05T10:45:14.271Z,6.19
2023-03-05T10:47:48.920Z,6.19
2023-03-05T10:50:27.821Z,6.18
2023-03-05T10:53:04.961Z,6.35
2023-03-05T10:55:32.351Z,6.30
2023-03-05T10:58:01.023Z,6.43
2023-03-05T11:00:28.551Z,6.56
2023-03-05T11:02:58.277Z,6.47
2023-03-05T11:05:45.214Z,6.42
2023-03-05T11:08:33.712Z,6.29
2023-03-05T11:11:10.241Z,6.48
2023-03-05T11:13:52.070Z,6.44
2023-03-05T11:16:21.617Z,6.48
2023-03-05T11:18:49.731Z,6.66
2023-03-05T11:21:28.592Z,6.86
2023-03-05T11:24:09.978Z,7.05
2023-03-05T11:26:36.854Z,7.27
2023-03-05T11:29:04.998Z,7.28
2023-03-05T11:31:33.528Z,7.31
2023-03-05T11:34:05.510Z,7.39
2023-03-05T11:36:57.226Z,7.51
2023-03-05T11:39:25.890Z,7.51
2023-03-05T11:41:56.033Z,7.66
2023-03-05T11:44:52.697Z,7.63
2023-03-05T11:47:31.810Z,7.48
2023-03-05T11:50:24.651Z,7.58
2023-03-05T11:52:56.137Z,7.54
2023-03-05T11:55:26.520Z,7.53
2023-03-05T11:58:20.402Z,7.42
2023-03-05T12:00:48.768Z,7.38
2023-03-05T12:03:19.344Z,7.45
2023-03-05T12:05:54.474Z,7.47
2023-03-05T12:08:29.472Z,7.42
2023-03-05T12:10:57.876Z,7.28
2023-03-05T12:13:36.784Z,7.29
2023-03-05T12:16:11.567Z,7.18
2023-03-05T12:18:51.218Z,7.02
2023-03-05T12:21:24.123Z,6.98
2023-03-05T12:23:51.920Z,6.81
2023-03-05T12:26:39.486Z,6.79
2023-03-05T12:29:27.868Z,6.73
2023-03-05T12:31:54.962Z,6.62
2023-03-05T12:34:40.583Z,6.64
2023-03-05T12:37:35.183Z,6.60
2023-03-05T12:40:19.563Z,6.60
2023-03-05T12:42:46.688Z,6.75
2023-03-05T12:45:16.552Z,7.05
2023-03-05T12:48:10.764Z,7.28
2023-03-05T12:50:37.858Z,7.33
2023-03-05T12:53:04.541Z,7.43
2023-03-05T12:55:35.014Z,7.48
2023-03-05T12:58:17.053Z,7.61
2023-03-05T13:00:49.478Z,7.57
2023-03-05T13:03:37.131Z,7.56
2023-03-05T13:06:06.982Z,7.51
2023-03-05T13:08:36.088Z,7.55
2023-03-05T13:11:20.553Z,7.57
2023-03-05T13:13:48.750Z,7.63
2023-03-05T13:16:23.389Z,7.69
2023-03-05T13:18:52.958Z,7.74
2023-03-05T13:21:26.868Z,7.53
2023-03-05T13:23:59.247Z,7.46
2023-03-05T13:26:30.690Z,7.32
2023-03-05T13:29:14.915Z,7.28
2023-03-05T13:31:58.775Z,7.18
2023-03-05T13:34:46.260Z,7.08
2023-03-05T13:37:18.834Z,6.97
2023-03-05T13:40:07.107Z,6.87
2023-03-05T13:42:37.591Z,6.96
2023-03-05T13:45:06.310Z,7.17
2023-03-05T13:47:35.486Z,7.31
2023-03-05T13:50:09.746Z,7.41
2023-03-05T13:52:38.876Z,7.51
2023-03-05T13:55:13.691Z,7.62
2023-03-05T13:57:55.839Z,7.70
2023-03-05T14:00:38.819Z,7.70
2023-03-05T14:03:10.084Z,7.76
2023-03-05T14:05:42.813Z,7.70
2023-03-05T14:08:21.292Z,7.58
2023-03-05T14:10:50.472Z,7.60
2023-03-05T14:13:20.984Z,7.63
2023-03-05T14:16:07.601Z,7.43
2023-03-05T14:18:35.528Z,7.55
2023-03-05T14:21:12.160Z,7.63
2023-03-05T14:23:52.971Z,7.62
2023-03-05T14:26:47.205Z,7.74
2023-03-05T14:29:17.682Z,7.78
2023-03-05T14:31:53.253Z,7.78
2023-03-05T14:34:23.114Z,7.88
2023-03-05T14:36:51.665Z,7.92
2023-03-05T14:39:39.828Z,7.93
2023-03-05T14:42:25.774Z,7.95
2023-03-05T14:44:55.826Z,7.78
2023-03-05T14:47:24.544Z,7.76
2023-03-05T14:49:51.198Z,7.86
2023-03-05T14:52:23.188Z,7.92
2023-03-05T14:54:51.885Z,8.06
2023-03-05T14:57:25.115Z,7.96
2023-03-05T14:59:52.372Z,7.86
2023-03-05T15:02:26.359Z,7.95
2023-03-05T15:04:53.701Z,8.40
2023-03-05T15:07:32.504Z,8.63
2023-03-05T15:10:02.495Z,8.93
2023-03-05T15:12:30.086Z,9.31
2023-03-05T15:14:57.297Z,9.07
2023-03-05T15:17:35.185Z,9.13
2023-03-05T15:20:06.911Z,9.19
2023-03-05T15:22:37.024Z,9.07
2023-03-05T15:25:05.917Z,8.91
2023-03-05T15:27:32.777Z,8.72
2023-03-05T15:30:00.425Z,8.73
2023-03-05T15:32:28.943Z,8.72
2023-03-05T15:34:56.301Z,8.84
2023-03-05T15:37:23.524Z,8.71
2023-03-05T15:39:53.002Z,8.56
2023-03-05T15:42:20.864Z,8.28
2023-03-05T15:44:47.966Z,8.03
2023-03-05T15:47:15.139Z,7.94
2023-03-05T15:49:43.059Z,7.80
2023-03-05T15:52:10.253Z,7.83
2023-03-05T15:54:37.685Z,7.79
2023-03-05T15:57:09.154Z,7.79
2023-03-05T15:59:36.854Z,7.84
2023-03-05T16:02:03.705Z,7.90
2023-03-05T16:04:30.610Z,7.87
2023-03-05T16:07:00.713Z,7.77
2023-03-05T16:09:31.131Z,7.64
2023-03-05T16:11:58.824Z,7.50
2023-03-05T16:14:27.893Z,7.59
2023-03-05T16:16:58.025Z,7.49
2023-03-05T16:19:25.645Z,7.43
2023-03-05T16:21:53.553Z,7.22
2023-03-05T16:24:20.425Z,7.13
2023-03-05T16:26:48.305Z,7.14
2023-03-05T16:29:15.580Z,7.07
2023-03-05T16:31:43.277Z,7.06
2023-03-05T16:34:14.027Z,7.05
2023-03-05T16:36:46.423Z,7.00
2023-03-05T16:39:13.463Z,6.93
2023-03-05T16:41:41.606Z,6.85
2023-03-05T16:44:09.267Z,6.78
2023-03-05T16:46:37.206Z,6.70
2023-03-05T16:49:05.180Z,6.73
2023-03-05T16:51:32.214Z,6.58
2023-03-05T16:53:59.828Z,6.66
2023-03-05T16:56:26.806Z,6.55
2023-03-05T16:58:55.563Z,6.51
2023-03-05T17:01:23.246Z,6.43
2023-03-05T17:03:52.848Z,6.38
2023-03-05T17:06:22.882Z,6.36
2023-03-05T17:08:51.218Z,6.28
2023-03-05T17:11:18.643Z,6.26
2023-03-05T17:13:48.750Z,6.24
2023-03-05T17:16:18.222Z,6.19
2023-03-05T17:18:45.677Z,6.17
2023-03-05T17:21:13.103Z,6.18
2023-03-05T17:23:40.542Z,6.12
2023-03-05T17:26:10.619Z,6.08
2023-03-05T17:28:38.303Z,6.06
2023-03-05T17:31:05.436Z,6.02
2023-03-05T17:33:33.940Z,5.99
2023-03-05T17:36:01.722Z,5.93
2023-03-05T17:38:30.002Z,5.85
2023-03-05T17:40:57.237Z,5.79
2023-03-05T17:43:24.263Z,5.83
2023-03-05T17:45:51.316Z,5.82
2023-03-05T17:48:18.240Z,5.79
2023-03-05T17:50:46.273Z,5.79
2023-03-05T17:53:13.620Z,5.83
2023-03-05T17:55:40.649Z,5.79
2023-03-05T17:58:08.854Z,5.84
2023-03-05T18:00:37.559Z,5.88
2023-03-05T18:03:05.473Z,5.81
2023-03-05T18:05:32.638Z,5.84
2023-03-05T18:08:03.411Z,5.78
2023-03-05T18:10:31.797Z,5.80
2023-03-05T18:12:59.505Z,5.75
2023-03-05T18:15:28.197Z,5.74
2023-03-05T18:17:56.408Z,5.83
2023-03-05T18:20:28.820Z,5.79
2023-03-05T18:22:56.369Z,5.82
2023-03-05T18:25:30.774Z,5.73
2023-03-05T18:28:12.396Z,5.69
2023-03-05T18:30:41.139Z,5.70
2023-03-05T18:33:13.632Z,5.71
2023-03-05T18:35:41.024Z,5.72
2023-03-05T18:38:08.357Z,5.70
2023-03-05T18:40:37.545Z,5.68
2023-03-05T18:43:04.600Z,5.71
2023-03-05T18:45:32.372Z,5.63
2023-03-05T18:47:59.154Z,5.65
2023-03-05T18:50:28.399Z,5.62
2023-03-05T18:52:56.098Z,5.58
2023-03-05T18:55:26.234Z,5.55
2023-03-05T18:57:54.024Z,5.55
2023-03-05T19:00:23.765Z,5.54
2023-03-05T19:02:52.136Z,5.56
2023-03-05T19:05:20.159Z,5.53
2023-03-05T19:07:48.524Z,5.44
2023-03-05T19:10:17.749Z,5.45
2023-03-05T19:12:57.844Z,5.42
2023-03-05T19:15:25.120Z,5.41
2023-03-05T19:17:52.371Z,5.40
2023-03-05T19:20:19.454Z,5.40
2023-03-05T19:22:46.539Z,5.35
2023-03-05T19:25:14.008Z,5.35
2023-03-05T19:27:41.303Z,5.33
2023-03-05T19:30:10.141Z,5.29
2023-03-05T19:32:37.887Z,5.27
2023-03-05T19:35:06.855Z,5.20
2023-03-05T19:37:33.947Z,5.19
2023-03-05T19:40:02.818Z,5.15
2023-03-05T19:42:30.200Z,5.10
2023-03-05T19:44:59.020Z,5.06
2023-03-05T19:47:27.210Z,5.07
2023-03-05T19:49:54.296Z,5.08
2023-03-05T19:52:21.673Z,5.13
2023-03-05T19:54:48.752Z,5.14
2023-03-05T19:57:15.955Z,5.15
2023-03-05T19:59:44.067Z,5.16
2023-03-05T20:02:12.649Z,5.09
2023-03-05T20:04:39.997Z,5.08
2023-03-05T20:07:07.213Z,5.05
2023-03-05T20:09:34.318Z,5.07
2023-03-05T20:12:04.949Z,5.15
2023-03-05T20:14:31.780Z,5.07
2023-03-05T20:16:59.365Z,5.08
2023-03-05T20:19:26.504Z,5.03
2023-03-05T20:21:53.297Z,5.05
2023-03-05T20:24:22.347Z,4.98
2023-03-05T20:26:49.572Z,4.96
2023-03-05T20:29:18.091Z,4.97
2023-03-05T20:31:46.664Z,4.94
2023-03-05T20:34:18.973Z,4.89
2023-03-05T20:36:46.592Z,4.93
2023-03-05T20:39:13.831Z,4.89
2023-03-05T20:41:41.839Z,4.85
2023-03-05T20:44:11.377Z,4.80
2023-03-05T20:46:49.451Z,4.76
2023-03-05T20:49:16.336Z,4.76
2023-03-05T20:51:43.693Z,4.71
2023-03-05T20:54:13.222Z,4.70
2023-03-05T20:56:40.577Z,4.74
2023-03-05T20:59:09.554Z,4.75
2023-03-05T21:01:38.940Z,4.70
2023-03-05T21:04:06.890Z,4.67
2023-03-05T21:06:34.531Z,4.70
2023-03-05T21:09:01.482Z,4.60
2023-03-05T21:11:28.608Z,4.58
2023-03-05T21:13:55.500Z,4.60
2023-03-05T21:16:25.447Z,4.63
2023-03-05T21:18:55.905Z,4.64
2023-03-05T21:21:24.175Z,4.65
2023-03-05T21:23:52.026Z,4.53
2023-03-05T21:26:19.524Z,4.49
2023-03-05T21:28:46.227Z,4.48
2023-03-05T21:31:21.425Z,4.51
2023-03-05T21:33:49.383Z,4.54
2023-03-05T21:36:18.809Z,4.49
2023-03-05T21:38:47.387Z,4.44
2023-03-05T21:41:15.594Z,4.37
2023-03-05T21:43:42.736Z,4.30
2023-03-05T21:46:12.227Z,4.24
2023-03-05T21:48:40.819Z,4.29
2023-03-05T21:51:12.583Z,4.25
2023-03-05T21:53:40.814Z,4.26
2023-03-05T21:56:17.500Z,4.24
2023-03-05T21:58:44.707Z,4.29
2023-03-05T22:01:12.571Z,4.28
2023-03-05T22:03:40.467Z,4.30
2023-03-05T22:06:12.354Z,4.26
2023-03-05T22:08:40.770Z,4.28
2023-03-05T22:11:12.382Z,4.18
2023-03-05T22:13:39.862Z,4.17
2023-03-05T22:16:09.163Z,4.13
2023-03-05T22:18:37.117Z,4.08
2023-03-05T22:21:05.151Z,4.04
2023-03-05T22:23:34.578Z,3.91
2023-03-05T22:26:06.816Z,3.89
2023-03-05T22:28:35.058Z,3.93
2023-03-05T22:31:03.718Z,3.94
2023-03-05T22:33:32.077Z,3.91
2023-03-05T22:35:59.473Z,3.91
2023-03-05T22:38:26.485Z,3.95
2023-03-05T22:40:54.357Z,3.92
2023-03-05T22:43:21.309Z,3.97
2023-03-05T22:45:49.297Z,3.91
2023-03-05T22:48:16.199Z,3.94
2023-03-05T22:50:46.331Z,3.97
2023-03-05T22:53:13.893Z,4.02
2023-03-05T22:55:42.348Z,4.02
2023-03-05T22:58:09.803Z,3.99
2023-03-05T23:00:37.175Z,3.93
2023-03-05T23:03:05.148Z,3.89
2023-03-05T23:05:34.360Z,3.95
2023-03-05T23:08:01.457Z,4.00
2023-03-05T23:10:29.676Z,3.98
2023-03-05T23:12:59.360Z,3.98
2023-03-05T23:15:32.619Z,3.92
2023-03-05T23:18:01.972Z,3.94
2023-03-05T23:20:32.394Z,3.94
2023-03-05T23:23:01.094Z,3.95
2023-03-05T23:25:31.735Z,3.97
2023-03-05T23:27:59.347Z,3.98
2023-03-05T23:30:34.663Z,3.97
2023-03-05T23:33:07.402Z,3.96
2023-03-05T23:35:37.793Z,3.93
2023-03-05T23:38:07.855Z,3.89
2023-03-05T23:40:37.978Z,3.94
2023-03-05T23:43:05.233Z,3.93
2023-03-05T23:45:33.182Z,3.87
2023-03-05T23:48:00.407Z,3.85
2023-03-05T23:50:30.970Z,3.83
2023-03-05T23:53:00.017Z,3.91
2023-03-05T23:55:48.431Z,3.93
2023-03-05T23:58:16.212Z,3.95
